Terminal Aerodrome Forecast
Issued by NWS Wilmington, OH

Current Version | Previous Version | Graphics & Text | Print | Product List | Glossary On
Versions: 1 2 3 4 5 6 7 8 9 10 11 12 13 14 15 16 17 18
000
FTUS41 KILN 221245 AAA
TAFCMH
TAF AMD
KCMH 221245Z 2213/2312 20012G18KT P6SM BKN120
     FM221600 21013G20KT P6SM VCTS BKN100CB
     FM221800 23014G23KT 6SM SHRA OVC060
      TEMPO 2218/2222 4SM TSRA OVC025CB
     FM230100 28010G18KT P6SM BKN040
     FM230400 32008KT P6SM SCT250=

USA.gov is the U.S. government's official web portal to all federal, state and local government web resources and services.